NCAR-RAP Real-Time Weather Data

Output produced by METARs form (20 February 2019  18:33 UTC)
found at http://weather.rap.ucar.edu/surface/
 
RJOH 201800Z 32008KT 9999 -SHRA FEW020 BKN030 OVC050 06/01 Q1023
RJOH 201700Z 36006KT 9999 -SHRA FEW020 SCT030 BKN050 08/M01 Q1023
RJOH 201600Z 31006KT 9999 -SHRA FEW020 SCT030 BKN050 08/M05 Q1023
RJOH 201500Z 29004KT 260V320 9999 -SHRA FEW020 SCT030 OVC050 08/M03 Q1023
RJOH 201400Z 29005KT 9999 FEW030 BKN050 08/M04 Q1023
RJOH 201300Z 31007KT 9999 FEW030 BKN050 08/M04 Q1023
RJOH 201200Z 31008KT 290V350 9999 FEW020 BKN030 BKN050 08/M01 Q1022
RJOH 201100Z 29007KT 9999 FEW020 BKN030 09/01 Q1022
RJOH 201000Z 25009KT 9999 -SHRA FEW020 BKN030 08/01 Q1021
RJOH 200900Z 25014KT 9999 FEW020 BKN030 08/00 Q1021
RJOH 200800Z 26013KT 9999 FEW010 BKN030 BKN040 09/01 Q1020
RJOH 200700Z 28018KT 9999 FEW010 BKN030 BKN040 09/01 Q1019
RJOH 200600Z 27016KT 9999 FEW010 SCT020 BKN030 10/02 Q1019
RJOH 200500Z 24012KT 9999 FEW015 BKN030 BKN040 10/04 Q1018
RJOH 200400Z 24010KT 9999 FEW010 SCT015 BKN025 10/04 Q1019
RJOH 200300Z 26011KT 9999 FEW010 SCT015 BKN025 10/06 Q1019
RJOH 200200Z 25007KT 9999 -SHRA FEW005 BKN015 BKN025 10/07 Q1019
RJOH 200100Z 25005KT 230V290 9999 -SHRA FEW005 BKN015 BKN025 10/08 Q1019
RJOH 200000Z 23003KT 9999 -SHRA FEW005 BKN015 BKN025 09/08 Q1018
RJOH 192300Z 22005KT 200V270 9999 -SHRA FEW006 BKN015 BKN020 09/07 Q1018
RJOH 192200Z 23004KT 9999 -SHRA FEW006 BKN015 BKN020 09/07 Q1018
RJOH 192100Z VRB02KT 8000 -SHRA FEW004 SCT006 BKN015 09/07 Q1017
RJOH 192000Z 24004KT 9999 -SHRA FEW008 SCT015 OVC020 09/08 Q1016
RJOH 191900Z 22005KT 9999 -SHRA FEW008 SCT015 OVC020 10/08 Q1016
RJOH 191800Z 19004KT 9999 -SHRA FEW008 SCT015 OVC020 10/08 Q1016
RJOH 191700Z 23005KT 9999 -SHRA FEW008 SCT015 OVC020 10/07 Q1016
RJOH 191600Z 27005KT 9999 -SHRA FEW008 BKN015 OVC020 11/08 Q1016
RJOH 191500Z 27011KT 9999 -SHRA FEW010 BKN015 OVC020 12/09 Q1016
RJOH 191400Z 25007KT 9999 -SHRA FEW008 BKN015 OVC020 11/09 Q1016
RJOH 191300Z 27010KT 9999 -SHRA FEW008 SCT010 OVC015 12/09 Q1016
RJOH 191200Z 24011KT 9999 FEW008 BKN015 BKN035 12/09 Q1014
RJOH 191100Z 26009KT 9999 -SHRA FEW008 BKN020 BKN035 11/10 Q1013
RJOH 191000Z 25009KT 9999 -SHRA FEW008 SCT020 BKN035 12/10 Q1012
RJOH 190900Z 25008KT 5000 -SHRA FEW005 SCT008 BKN020 11/09 Q1011
RJOH 190800Z 28009KT 9999 -SHRA FEW005 BKN035 OVC045 13/10 Q1009
RJOH 190700Z 18012KT 9999 FEW005 SCT035 BKN050 14/09 Q1008
RJOH 190600Z 14007KT 9999 FEW003 SCT035 BKN050 13/09 Q1010
RJOH 190500Z 08006KT 060V120 9999 -SHRA FEW005 BKN035 OVC045 11/09 Q1012
RJOH 190400Z 01004KT 330V040 9999 -SHRA FEW025 BKN035 OVC045 10/08 Q1013
RJOH 190300Z 03005KT 9999 -SHRA FEW006 BKN035 OVC045 09/07 Q1014
RJOH 190200Z VRB02KT 8000 -RA FEW004 SCT035 BKN045 09/06 Q1016
RJOH 190100Z 36005KT 9999 -RA FEW004 BKN045 OVC060 08/06 Q1017
RJOH 190000Z 11003KT 9999 -RA FEW030 BKN045 OVC060 08/05 Q1019
RJOH 182300Z 09004KT 9999 -RA FEW030 BKN045 OVC060 07/04 Q1019
RJOH 182200Z 08004KT 9999 -RA FEW025 BKN040 OVC060 07/04 Q1020
RJOH 182100Z 16005KT 9999 -RA FEW025 BKN040 OVC060 06/03 Q1021
RJOH 182000Z 17008KT 9999 -RA FEW025 BKN045 OVC060 07/03 Q1021
RJOH 181900Z 22005KT 9999 -RA FEW030 BKN050 OVC070 06/03 Q1022
RJOH 181800Z 23002KT 9999 -RA FEW030 SCT050 OVC070 06/03 Q1022
RJOH 181700Z 23002KT 9999 FEW030 SCT050 OVC070 06/03 Q1022
RJOH 181600Z 20002KT 9999 FEW030 BKN070 OVC100 06/02 Q1023
RJOH 181500Z 18002KT 9999 FEW050 BKN080 OVC100 06/01 Q1024
RJOH 181400Z 24002KT 9999 FEW050 SCT080 OVC110 07/01 Q1024
RJOH 181300Z 18001KT 9999 FEW050 BKN120 OVC150 06/01 Q1025
RJOH 181200Z 20003KT 9999 FEW050 BKN120 OVC150 06/02 Q1025
RJOH 181100Z 09005KT 9999 FEW050 SCT120 BKN150 09/00 Q1025
RJOH 181000Z 08006KT 9999 FEW050 BKN150 BKN/// 08/M01 Q1025
RJOH 180900Z 06005KT 9999 FEW050 BKN150 BKN230 08/M02 Q1024
RJOH 180800Z 06007KT 9999 FEW050 SCT180 BKN230 10/M02 Q1024
RJOH 180700Z 06008KT 9999 FEW050 BKN230 10/M03 Q1024